Time;durP1;ratioP1;P1;durP2;ratioP2;P2;SDS_P1;SDS_P2;PMS_P1;PMS_P2;Temp;Humidity;BMP_temperature;BMP_pressure;BME280_temperature;BME280_humidity;BME280_pressure;Samples;Min_cycle;Max_cycle;Signal;HPM_P1;HPM_P2
2022/05/27 00:02:10;;;;;;;23.50;2.80;;;27.80;91.70;;;;;;5107123;28;20024;-55
2022/05/27 00:04:37;;;;;;;28.67;2.65;;;27.70;91.30;;;;;;5093680;28;20036;-55
2022/05/27 00:07:13;;;;;;;33.13;3.63;;;27.70;90.70;;;;;;5117428;28;20070;-57
2022/05/27 00:10:09;;;;;;;22.23;2.47;;;27.70;90.90;;;;;;5126912;28;20073;-51
2022/05/27 00:12:36;;;;;;;27.30;2.60;;;27.70;90.50;;;;;;5127274;28;20259;-47
2022/05/27 00:15:10;;;;;;;29.52;2.70;;;27.60;90.50;;;;;;5127392;28;20035;-55
2022/05/27 00:17:37;;;;;;;30.27;2.88;;;27.60;90.30;;;;;;5127142;28;20065;-55
2022/05/27 00:20:04;;;;;;;32.40;2.90;;;27.70;90.10;;;;;;5127480;28;20181;-53
2022/05/27 00:22:30;;;;;;;42.25;3.20;;;27.60;90.00;;;;;;5126889;28;20308;-48
2022/05/27 00:24:57;;;;;;;40.25;3.30;;;27.60;89.70;;;;;;5109189;28;20035;-50
2022/05/27 00:27:23;;;;;;;36.75;3.13;;;27.60;89.70;;;;;;5127117;28;20043;-54
2022/05/27 00:29:50;;;;;;;29.38;3.10;;;27.60;89.30;;;;;;5126315;28;20043;-48
2022/05/27 00:32:17;;;;;;;57.80;4.15;;;27.50;88.80;;;;;;5126681;28;20030;-49
2022/05/27 00:34:44;;;;;;;29.63;2.10;;;27.30;89.00;;;;;;5108795;28;20185;-55
2022/05/27 00:37:10;;;;;;;20.63;1.90;;;27.20;89.00;;;;;;5126094;28;20080;-49
2022/05/27 00:39:51;;;;;;;;;;;;;;;;;;;;;
2022/05/27 00:45:35;;;;;;;42.47;3.00;;;26.90;90.00;;;;;;5110861;28;20264;-49
2022/05/27 00:48:26;;;;;;;29.77;2.70;;;26.80;90.10;;;;;;5126179;28;20064;-55
2022/05/27 00:50:53;;;;;;;40.67;5.40;;;26.80;90.30;;;;;;5125407;28;20047;-48
2022/05/27 00:53:39;;;;;;;48.63;3.67;;;26.70;90.30;;;;;;5126392;28;20234;-54
2022/05/27 00:56:08;;;;;;;64.60;5.43;;;26.80;90.30;;;;;;5125866;28;20132;-55
2022/05/27 00:59:28;;;;;;;38.35;5.18;;;26.80;90.30;;;;;;5126340;28;20030;-52
2022/05/27 01:01:54;;;;;;;49.80;4.60;;;26.70;90.30;;;;;;5052233;28;20024;-54
2022/05/27 01:04:22;;;;;;;93.93;8.45;;;26.70;90.50;;;;;;5125899;28;20012;-55
2022/05/27 01:06:50;;;;;;;76.53;7.70;;;26.70;90.50;;;;;;5125469;28;20011;-51
2022/05/27 01:09:17;;;;;;;66.75;5.90;;;26.60;90.70;;;;;;5085138;28;20146;-50
2022/05/27 01:12:16;;;;;;;22.95;1.73;;;26.60;90.80;;;;;;5084964;28;20016;-53
2022/05/27 01:15:34;;;;;;;6.68;1.00;;;26.60;90.80;;;;;;5085174;28;20023;-55
2022/05/27 01:21:59;;;;;;;45.45;3.33;;;26.60;90.90;;;;;;5014570;28;20040;-49
2022/05/27 01:24:49;;;;;;;96.93;6.90;;;26.50;91.00;;;;;;5051067;28;20033;-51
2022/05/27 01:28:03;;;;;;;100.20;7.20;;;26.50;91.10;;;;;;5084728;28;20035;-54
2022/05/27 01:31:00;;;;;;;137.35;9.80;;;26.50;91.20;;;;;;5067182;28;20236;-55
2022/05/27 01:33:38;;;;;;;95.00;8.90;;;26.50;91.40;;;;;;5084031;28;20048;-50
2022/05/27 01:36:37;;;;;;;84.13;5.85;;;26.40;91.50;;;;;;5083186;28;20021;-56
2022/05/27 01:39:14;;;;;;;73.05;6.80;;;26.40;91.60;;;;;;5083294;28;20028;-54
2022/05/27 01:41:44;;;;;;;38.15;3.83;;;26.40;91.90;;;;;;5066797;28;20027;-51
2022/05/27 01:44:25;;;;;;;15.23;2.15;;;26.40;91.80;;;;;;5084697;28;20024;-53
2022/05/27 01:46:51;;;;;;;11.23;1.75;;;26.60;91.80;;;;;;5084800;28;20032;-59
2022/05/27 01:49:32;;;;;;;8.73;0.93;;;26.60;92.00;;;;;;5083694;28;20031;-50
2022/05/27 01:52:24;;;;;;;7.72;0.70;;;26.50;91.90;;;;;;5084281;28;20031;-59
2022/05/27 01:54:56;;;;;;;5.70;1.10;;;26.50;92.30;;;;;;5084436;28;20319;-48
2022/05/27 01:57:29;;;;;;;19.13;1.63;;;26.40;92.60;;;;;;5084509;28;20016;-48
2022/05/27 02:00:28;;;;;;;;;;;;;;;;;;;;;
2022/05/27 02:03:21;;;;;;;52.35;4.10;;;26.20;92.80;;;;;;5083314;28;20226;-48
2022/05/27 02:06:03;;;;;;;13.38;1.75;;;26.20;93.00;;;;;;5077557;28;20043;-54
2022/05/27 02:08:44;;;;;;;17.05;1.88;;;26.20;92.70;;;;;;5098087;28;20035;-51
2022/05/27 02:11:19;;;;;;;9.30;1.17;;;26.30;92.80;;;;;;5104364;28;20048;-51
2022/05/27 02:14:35;;;;;;;6.78;0.80;;;26.30;92.90;;;;;;5104332;28;20012;-52
2022/05/27 02:17:11;;;;;;;15.38;1.35;;;26.30;92.80;;;;;;5061292;28;20094;-53
2022/05/27 02:20:07;;;;;;;10.02;0.93;;;26.40;92.70;;;;;;5104479;28;20339;-50
2022/05/27 02:22:40;;;;;;;2.58;0.63;;;26.40;92.70;;;;;;5087180;28;20015;-44
2022/05/27 02:25:15;;;;;;;5.45;0.47;;;26.50;92.60;;;;;;5104600;28;20024;-54
2022/05/27 02:27:53;;;;;;;4.38;0.80;;;26.50;92.60;;;;;;5103285;28;20024;-45
2022/05/27 02:30:29;;;;;;;7.78;0.80;;;26.50;92.70;;;;;;5096326;28;20020;-45
2022/05/27 02:36:09;;;;;;;6.10;1.15;;;26.60;92.70;;;;;;5104215;28;20031;-58
2022/05/27 02:38:36;;;;;;;9.85;1.50;;;26.60;92.80;;;;;;5104319;28;20024;-48
2022/05/27 02:41:48;;;;;;;6.00;1.23;;;26.60;92.80;;;;;;5104477;28;20024;-51
2022/05/27 02:44:42;;;;;;;6.28;1.02;;;26.60;92.90;;;;;;5103252;28;20020;-54
2022/05/27 02:47:47;;;;;;;3.30;0.90;;;26.70;93.00;;;;;;5086798;28;20308;-51
2022/05/27 02:50:39;;;;;;;6.10;0.80;;;26.70;93.00;;;;;;5065813;28;20020;-54
2022/05/27 02:53:24;;;;;;;4.72;1.08;;;26.70;92.90;;;;;;5083703;28;20043;-50
2022/05/27 02:55:57;;;;;;;5.28;1.00;;;26.80;92.90;;;;;;5083556;28;20017;-49
2022/05/27 02:58:29;;;;;;;4.85;0.65;;;26.80;92.80;;;;;;5083832;28;20036;-52
2022/05/27 03:00:55;;;;;;;;;;;26.80;92.50;;;;;;5083982;28;20098;-48
2022/05/27 03:03:22;;;;;;;3.53;1.00;;;26.70;92.20;;;;;;5083484;28;19983;-54
2022/05/27 03:06:05;;;;;;;6.00;1.33;;;26.70;92.30;;;;;;5083393;28;20035;-51
2022/05/27 03:09:02;;;;;;;5.82;1.20;;;26.70;92.20;;;;;;5083284;28;20072;-59
2022/05/27 03:11:32;;;;;;;8.20;1.45;;;26.70;92.20;;;;;;5083968;28;20304;-56
2022/05/27 03:14:08;;;;;;;26.42;2.75;;;26.70;92.10;;;;;;5067977;28;20024;-53
2022/05/27 03:16:42;;;;;;;30.75;3.75;;;26.80;92.10;;;;;;5087407;28;20019;-52
2022/05/27 03:19:18;;;;;;;21.20;1.77;;;26.80;92.20;;;;;;5087270;28;20025;-49
2022/05/27 03:22:10;;;;;;;7.95;1.30;;;26.80;92.10;;;;;;5087446;28;20013;-57
2022/05/27 03:25:07;;;;;;;7.82;1.23;;;26.80;92.30;;;;;;5087778;28;20032;-54
2022/05/27 03:28:07;;;;;;;10.70;1.27;;;26.70;92.40;;;;;;5087325;28;20017;-52
2022/05/27 03:30:55;;;;;;;9.95;1.20;;;26.70;92.50;;;;;;5087021;28;20224;-52
2022/05/27 03:33:50;;;;;;;11.45;1.20;;;26.70;92.60;;;;;;5087098;28;20289;-53
2022/05/27 03:36:27;;;;;;;8.85;1.05;;;26.80;92.40;;;;;;5087204;28;20256;-53
2022/05/27 03:38:54;;;;;;;6.18;0.95;;;26.70;92.50;;;;;;5069126;28;20363;-48
2022/05/27 03:41:20;;;;;;;6.32;0.82;;;26.80;92.40;;;;;;5087135;28;20028;-51
2022/05/27 03:43:47;;;;;;;5.40;0.80;;;26.80;92.50;;;;;;5068965;28;20028;-57
2022/05/27 03:46:30;;;;;;;7.43;0.75;;;26.80;92.40;;;;;;5095120;28;20027;-50
2022/05/27 03:48:57;;;;;;;4.75;0.60;;;26.70;92.40;;;;;;5107527;28;20228;-49
2022/05/27 03:51:28;;;;;;;7.03;0.63;;;26.70;92.30;;;;;;5107347;28;20020;-52
2022/05/27 03:54:04;;;;;;;5.38;0.70;;;26.70;92.60;;;;;;5106817;28;20031;-48
2022/05/27 03:56:42;;;;;;;5.20;0.50;;;26.60;92.60;;;;;;5105879;28;20101;-63
2022/05/27 03:59:14;;;;;;;3.88;0.75;;;26.70;92.60;;;;;;5088903;28;20039;-51
2022/05/27 04:01:43;;;;;;;5.00;0.90;;;26.70;92.50;;;;;;5107072;28;20026;-57
2022/05/27 04:04:13;;;;;;;4.07;0.90;;;26.70;92.40;;;;;;5106673;28;20220;-53
2022/05/27 04:06:43;;;;;;;4.82;0.80;;;26.70;92.60;;;;;;5106765;28;20034;-55
2022/05/27 04:09:10;;;;;;;5.30;0.80;;;26.70;92.40;;;;;;5106386;28;20052;-48
2022/05/27 04:11:37;;;;;;;4.35;0.65;;;26.70;92.40;;;;;;5106320;28;20015;-48
2022/05/27 04:14:04;;;;;;;3.20;0.85;;;26.70;92.40;;;;;;5125958;28;20023;-50
2022/05/27 04:16:31;;;;;;;7.00;0.90;;;26.70;92.50;;;;;;5126021;28;20037;-51
2022/05/27 04:19:00;;;;;;;6.28;1.00;;;26.70;92.40;;;;;;5107773;28;20098;-52
2022/05/27 04:21:27;;;;;;;22.45;2.28;;;26.70;92.60;;;;;;5125579;28;20359;-49
2022/05/27 04:23:58;;;;;;;16.92;1.60;;;26.70;92.50;;;;;;5126185;28;20124;-49
2022/05/27 04:26:28;;;;;;;9.82;1.70;;;26.70;92.50;;;;;;5124831;28;20022;-54
2022/05/27 04:28:54;;;;;;;6.97;1.25;;;26.70;92.50;;;;;;5126364;28;20065;-62
2022/05/27 04:31:21;;;;;;;10.23;1.40;;;26.70;92.40;;;;;;5126882;28;20039;-51
2022/05/27 04:33:48;;;;;;;7.30;1.20;;;26.70;92.40;;;;;;5126513;28;20023;-51
2022/05/27 04:36:15;;;;;;;5.00;0.82;;;26.80;92.40;;;;;;5126330;28;20311;-52
2022/05/27 04:38:45;;;;;;;5.38;0.63;;;26.80;92.50;;;;;;5126825;28;20299;-49
2022/05/27 04:41:12;;;;;;;6.68;1.00;;;26.70;92.40;;;;;;5127191;28;20024;-51
2022/05/27 04:43:39;;;;;;;6.55;1.00;;;26.70;92.40;;;;;;5126680;28;20212;-51
2022/05/27 04:46:07;;;;;;;8.88;1.08;;;26.70;92.40;;;;;;5108548;28;20035;-56
2022/05/27 04:48:33;;;;;;;6.97;0.80;;;26.70;92.50;;;;;;5126362;28;20263;-52
2022/05/27 04:51:00;;;;;;;3.10;0.73;;;26.80;92.50;;;;;;5126522;28;20034;-52
2022/05/27 04:53:27;;;;;;;4.03;0.70;;;26.80;92.40;;;;;;5126881;28;20027;-51
2022/05/27 04:55:53;;;;;;;2.55;0.57;;;26.80;92.50;;;;;;5126596;28;20045;-57
2022/05/27 04:58:20;;;;;;;5.43;0.93;;;26.70;92.40;;;;;;5127234;28;20079;-48
2022/05/27 05:00:48;;;;;;;4.63;0.73;;;26.70;92.40;;;;;;5126435;28;20031;-47
2022/05/27 05:03:15;;;;;;;6.53;0.60;;;26.80;92.50;;;;;;5126434;28;20334;-51
2022/05/27 05:05:43;;;;;;;3.80;0.80;;;26.70;92.40;;;;;;5126428;28;20032;-48
2022/05/27 05:08:38;;;;;;;2.65;0.60;;;26.70;92.40;;;;;;5126327;28;20103;-54
2022/05/27 05:11:05;;;;;;;5.65;1.00;;;26.70;92.50;;;;;;5126457;28;20023;-51
2022/05/27 05:13:34;;;;;;;4.53;0.98;;;26.60;92.50;;;;;;5126106;28;20016;-54
2022/05/27 05:16:02;;;;;;;4.68;0.95;;;26.60;92.50;;;;;;5126654;28;20023;-48
2022/05/27 05:18:29;;;;;;;4.38;0.73;;;26.60;92.40;;;;;;5126040;28;20311;-52
2022/05/27 05:20:56;;;;;;;4.30;0.68;;;26.60;92.30;;;;;;5126167;28;20039;-52
2022/05/27 05:23:23;;;;;;;2.78;0.60;;;26.60;92.10;;;;;;5125687;28;20312;-52
2022/05/27 05:25:49;;;;;;;4.65;0.60;;;26.60;92.00;;;;;;5125968;28;20031;-52
2022/05/27 05:28:16;;;;;;;5.32;0.60;;;26.60;92.00;;;;;;5126072;28;20072;-54
2022/05/27 05:30:42;;;;;;;6.13;0.57;;;26.60;92.00;;;;;;5125794;28;20177;-52
2022/05/27 05:33:09;;;;;;;3.58;0.40;;;26.50;91.90;;;;;;5125786;28;20079;-50
2022/05/27 05:35:36;;;;;;;2.08;0.35;;;26.50;91.90;;;;;;5125657;28;20027;-55
2022/05/27 05:38:03;;;;;;;3.38;0.50;;;26.50;91.90;;;;;;5125487;28;20016;-48
2022/05/27 05:40:30;;;;;;;3.38;0.35;;;26.50;91.80;;;;;;5125475;28;20288;-50
2022/05/27 05:43:00;;;;;;;4.72;0.40;;;26.50;91.80;;;;;;5125318;28;20027;-51
2022/05/27 05:45:26;;;;;;;3.88;0.45;;;26.50;91.70;;;;;;5125347;28;20095;-50
2022/05/27 05:47:53;;;;;;;4.10;0.45;;;26.50;91.60;;;;;;5125481;28;20019;-49
2022/05/27 05:50:20;;;;;;;3.08;0.30;;;26.50;91.70;;;;;;5125110;28;20024;-55
2022/05/27 05:52:47;;;;;;;1.90;0.30;;;26.50;91.60;;;;;;5125018;28;20019;-50
2022/05/27 05:55:16;;;;;;;4.28;0.40;;;26.40;91.60;;;;;;5125078;28;20019;-47
2022/05/27 05:57:45;;;;;;;3.10;0.40;;;26.40;91.60;;;;;;5125093;28;20075;-46
2022/05/27 06:00:15;;;;;;;5.28;0.55;;;26.40;91.60;;;;;;5125000;28;20023;-50
2022/05/27 06:02:41;;;;;;;1.83;0.30;;;26.40;91.60;;;;;;5125206;28;20069;-50
2022/05/27 06:05:09;;;;;;;3.42;0.30;;;26.30;91.70;;;;;;5125185;28;20031;-56
2022/05/27 06:07:36;;;;;;;2.20;0.20;;;26.30;91.80;;;;;;5124586;28;20223;-48
2022/05/27 06:10:04;;;;;;;2.58;0.30;;;26.30;91.60;;;;;;5125266;28;20198;-55
2022/05/27 06:12:34;;;;;;;5.20;0.57;;;26.40;91.60;;;;;;5124906;28;20012;-53
2022/05/27 06:15:01;;;;;;;2.47;0.28;;;26.30;91.50;;;;;;5124689;28;20308;-51
2022/05/27 06:17:28;;;;;;;2.13;0.50;;;26.40;91.50;;;;;;5125244;28;20012;-50
2022/05/27 06:19:54;;;;;;;5.32;0.40;;;26.30;91.50;;;;;;5124928;28;20325;-47
2022/05/27 06:22:21;;;;;;;3.00;0.40;;;26.40;91.50;;;;;;5124820;28;20023;-46
2022/05/27 06:24:47;;;;;;;7.03;0.52;;;26.40;91.50;;;;;;5125353;28;20017;-51
2022/05/27 06:27:14;;;;;;;2.13;0.30;;;26.40;91.60;;;;;;5125327;28;20015;-52
2022/05/27 06:35:10;;;;;;;2.15;0.30;;;26.30;91.70;;;;;;5124633;28;20026;-48
2022/05/27 06:37:37;;;;;;;6.65;0.63;;;26.30;91.70;;;;;;5124562;28;20016;-55
2022/05/27 06:40:05;;;;;;;3.35;0.75;;;26.30;91.70;;;;;;5124833;28;20229;-52
2022/05/27 06:42:32;;;;;;;7.22;0.60;;;26.30;91.90;;;;;;5124822;28;20202;-49
2022/05/27 06:44:58;;;;;;;2.50;0.28;;;26.30;91.80;;;;;;5124418;28;20027;-50
2022/05/27 06:47:25;;;;;;;3.03;0.50;;;26.30;91.80;;;;;;5124511;28;20082;-49
2022/05/27 06:49:52;;;;;;;2.22;0.30;;;26.30;91.70;;;;;;5128522;28;20039;-48
2022/05/27 06:52:18;;;;;;;2.97;0.40;;;26.30;91.80;;;;;;5129160;28;20022;-52
2022/05/27 06:54:45;;;;;;;4.22;0.40;;;26.30;91.70;;;;;;5128498;28;20039;-51
2022/05/27 06:57:12;;;;;;;8.10;0.63;;;26.30;91.70;;;;;;5128505;28;20072;-49
2022/05/27 06:59:38;;;;;;;7.80;0.50;;;26.30;91.70;;;;;;5128841;28;20069;-51
2022/05/27 07:02:06;;;;;;;4.55;0.40;;;26.30;91.70;;;;;;5129088;28;20028;-49
2022/05/27 07:04:33;;;;;;;2.85;0.40;;;26.30;91.70;;;;;;5128432;28;20023;-51
2022/05/27 07:07:03;;;;;;;4.35;0.35;;;26.30;91.70;;;;;;5128696;28;20089;-49
2022/05/27 07:09:35;;;;;;;5.65;0.40;;;26.30;91.70;;;;;;5128206;28;20034;-52
2022/05/27 07:12:04;;;;;;;2.67;0.35;;;26.30;91.70;;;;;;5128728;28;20030;-48
2022/05/27 07:14:31;;;;;;;3.67;0.50;;;26.30;91.80;;;;;;5128219;28;20023;-51
2022/05/27 07:16:57;;;;;;;5.00;0.40;;;26.30;91.80;;;;;;5128673;28;20020;-47
2022/05/27 07:19:24;;;;;;;4.90;0.40;;;26.20;91.90;;;;;;5128139;28;20049;-51
2022/05/27 07:21:52;;;;;;;3.08;0.40;;;26.20;91.80;;;;;;5128696;28;20019;-49
2022/05/27 07:24:19;;;;;;;6.43;0.60;;;26.20;91.90;;;;;;5128166;28;20070;-54
2022/05/27 07:26:46;;;;;;;8.15;0.73;;;26.20;91.90;;;;;;5128601;28;20057;-50
2022/05/27 07:29:13;;;;;;;4.68;0.47;;;26.20;91.90;;;;;;5128031;28;20060;-52
2022/05/27 07:31:42;;;;;;;5.53;0.63;;;26.20;91.90;;;;;;5128332;28;20020;-48
2022/05/27 07:34:08;;;;;;;4.63;0.60;;;26.20;92.00;;;;;;5128281;28;20023;-48
2022/05/27 07:36:35;;;;;;;7.25;0.80;;;26.20;92.10;;;;;;5128581;28;20269;-50
2022/05/27 07:39:03;;;;;;;2.60;0.52;;;26.20;92.00;;;;;;5128283;28;20026;-51
2022/05/27 07:41:30;;;;;;;4.13;0.38;;;26.20;92.00;;;;;;5128174;28;20200;-53
2022/05/27 07:44:01;;;;;;;5.53;0.60;;;26.20;92.00;;;;;;5127796;28;20083;-50
2022/05/27 07:46:30;;;;;;;5.55;0.50;;;26.20;92.00;;;;;;5128081;28;20066;-51
2022/05/27 07:48:56;;;;;;;4.13;0.50;;;26.10;92.10;;;;;;5127707;28;20041;-49
2022/05/27 07:51:23;;;;;;;6.45;0.50;;;26.10;92.20;;;;;;5127799;28;20172;-48
2022/05/27 07:53:50;;;;;;;7.27;0.80;;;26.10;92.10;;;;;;5127519;28;20079;-53
2022/05/27 07:56:16;;;;;;;5.05;0.47;;;26.10;92.00;;;;;;5128458;28;20180;-48
2022/05/27 07:58:43;;;;;;;5.25;0.60;;;26.10;92.00;;;;;;5127489;28;20091;-49
2022/05/27 08:01:10;;;;;;;6.75;0.60;;;26.10;92.00;;;;;;5127908;28;20307;-49
2022/05/27 08:03:36;;;;;;;4.10;0.40;;;26.10;92.00;;;;;;5127830;28;20044;-52
2022/05/27 08:06:03;;;;;;;5.22;0.57;;;26.10;92.00;;;;;;5127413;28;20055;-50
2022/05/27 08:08:29;;;;;;;4.22;0.60;;;26.10;92.10;;;;;;5126974;28;20043;-55
2022/05/27 08:10:57;;;;;;;9.35;0.50;;;26.10;92.00;;;;;;5127623;28;20065;-52
2022/05/27 08:13:25;;;;;;;5.30;0.77;;;26.10;91.90;;;;;;5127124;28;20018;-47
2022/05/27 08:15:52;;;;;;;6.35;0.50;;;26.10;91.90;;;;;;5127063;28;20032;-49
2022/05/27 08:18:20;;;;;;;3.05;0.52;;;26.10;91.90;;;;;;5127191;28;20019;-52
2022/05/27 08:20:47;;;;;;;6.95;0.55;;;26.10;91.90;;;;;;5127133;28;20246;-51
2022/05/27 08:23:14;;;;;;;7.22;0.50;;;26.10;91.90;;;;;;5127093;28;20019;-51
2022/05/27 08:25:41;;;;;;;5.00;0.75;;;26.10;91.90;;;;;;5127260;28;20028;-47
2022/05/27 08:28:08;;;;;;;5.75;0.60;;;26.10;91.90;;;;;;5127020;28;20020;-49
2022/05/27 08:30:38;;;;;;;6.88;0.60;;;26.10;91.90;;;;;;5127180;28;20043;-53
2022/05/27 08:33:04;;;;;;;5.35;0.55;;;26.10;91.90;;;;;;5126867;28;20116;-53
2022/05/27 08:38:21;;;;;;;7.45;1.00;;;26.00;92.00;;;;;;5127132;28;20015;-50
2022/05/27 08:41:05;;;;;;;9.07;0.80;;;26.00;92.00;;;;;;5127589;28;20028;-53
2022/05/27 08:43:48;;;;;;;3.55;0.50;;;26.00;92.00;;;;;;5127055;28;20159;-52
2022/05/27 08:46:33;;;;;;;7.28;0.60;;;26.00;92.00;;;;;;5127250;28;20207;-52
2022/05/27 08:49:05;;;;;;;6.97;0.70;;;26.00;92.00;;;;;;5126859;28;20083;-55
2022/05/27 08:51:47;;;;;;;2.35;0.40;;;26.00;92.10;;;;;;5127495;28;20023;-49
2022/05/27 08:54:42;;;;;;;6.50;0.37;;;26.00;92.10;;;;;;5126655;28;20282;-55
2022/05/27 09:00:03;;;;;;;5.22;0.70;;;25.90;92.30;;;;;;5126866;28;20019;-52
2022/05/27 09:02:56;;;;;;;8.75;0.73;;;25.90;92.20;;;;;;5126640;28;20034;-52
2022/05/27 09:05:43;;;;;;;9.55;0.80;;;25.90;92.20;;;;;;5126329;28;20027;-50
2022/05/27 09:08:24;;;;;;;6.05;0.47;;;25.90;92.20;;;;;;5125990;28;20085;-48
2022/05/27 09:11:03;;;;;;;9.43;0.70;;;25.90;92.40;;;;;;5125788;28;20024;-51
2022/05/27 09:13:52;;;;;;;5.97;0.70;;;25.80;92.40;;;;;;5126183;28;20061;-48
2022/05/27 09:16:36;;;;;;;5.90;0.85;;;25.80;92.40;;;;;;5126185;28;20020;-51
2022/05/27 09:19:25;;;;;;;3.67;0.55;;;25.80;92.40;;;;;;5125799;28;20046;-49
2022/05/27 09:22:18;;;;;;;4.57;0.50;;;25.80;92.30;;;;;;5126332;28;20030;-54
2022/05/27 09:25:11;;;;;;;5.78;0.52;;;25.90;92.30;;;;;;5125696;28;20127;-49
2022/05/27 09:27:47;;;;;;;6.93;0.98;;;25.90;92.20;;;;;;5125911;28;20015;-52
2022/05/27 09:30:16;;;;;;;5.85;0.60;;;25.90;92.20;;;;;;5125747;28;20338;-48
2022/05/27 09:32:55;;;;;;;7.22;0.77;;;25.90;92.20;;;;;;5125973;28;20043;-51
2022/05/27 09:35:35;;;;;;;4.60;0.60;;;25.90;92.20;;;;;;5125839;28;20046;-51
2022/05/27 09:38:05;;;;;;;5.47;0.40;;;25.90;92.20;;;;;;5125903;28;20024;-53
2022/05/27 09:40:31;;;;;;;4.35;0.93;;;25.90;92.20;;;;;;5126013;28;20073;-50
2022/05/27 09:43:39;;;;;;;11.52;1.05;;;25.80;92.10;;;;;;5126202;28;20312;-52
2022/05/27 09:46:11;;;;;;;5.13;0.70;;;25.90;92.10;;;;;;5086136;28;20046;-51
2022/05/27 09:48:37;;;;;;;9.23;0.93;;;25.90;92.20;;;;;;5125397;28;20021;-50
2022/05/27 09:51:08;;;;;;;11.18;0.73;;;25.90;92.30;;;;;;5125010;28;20030;-52
2022/05/27 09:53:44;;;;;;;2.45;0.73;;;25.80;92.20;;;;;;5125562;28;20020;-50
2022/05/27 09:56:13;;;;;;;6.82;0.70;;;25.90;92.30;;;;;;5125891;28;20137;-56
2022/05/27 09:58:42;;;;;;;4.78;0.70;;;25.80;92.30;;;;;;5125555;28;20019;-57
2022/05/27 10:01:29;;;;;;;3.38;0.65;;;25.90;92.30;;;;;;5125296;28;20023;-55
2022/05/27 10:04:06;;;;;;;7.03;1.00;;;25.90;92.30;;;;;;5125201;28;20074;-57
2022/05/27 10:06:36;;;;;;;7.10;0.55;;;25.90;92.30;;;;;;5125554;28;20195;-51
2022/05/27 10:09:25;;;;;;;8.00;1.00;;;25.80;92.30;;;;;;5125670;28;19915;-53
2022/05/27 10:11:55;;;;;;;9.73;0.70;;;25.80;92.30;;;;;;5125778;28;20210;-47
2022/05/27 10:14:35;;;;;;;7.53;0.85;;;25.80;92.60;;;;;;5125085;28;20327;-50
2022/05/27 10:17:25;;;;;;;7.50;0.70;;;25.80;92.50;;;;;;5125139;28;20043;-48
2022/05/27 10:19:52;;;;;;;7.75;0.75;;;25.80;92.50;;;;;;5124947;28;20270;-51
2022/05/27 10:22:26;;;;;;;9.68;1.02;;;25.80;92.50;;;;;;5124505;28;20019;-53
2022/05/27 10:25:13;;;;;;;6.90;0.88;;;25.80;92.40;;;;;;5124851;28;20007;-46
2022/05/27 10:27:44;;;;;;;7.22;0.88;;;25.80;92.40;;;;;;5123356;28;20324;-52
2022/05/27 10:30:19;;;;;;;6.53;1.00;;;25.80;92.50;;;;;;5124800;28;20031;-46
2022/05/27 10:32:46;;;;;;;10.52;1.05;;;25.80;92.60;;;;;;5124589;28;20016;-56
2022/05/27 10:35:29;;;;;;;9.23;1.40;;;25.80;92.60;;;;;;5124586;28;20023;-50
2022/05/27 10:38:15;;;;;;;9.45;1.70;;;25.80;92.60;;;;;;5124538;28;20057;-51
2022/05/27 10:40:56;;;;;;;9.35;2.25;;;25.80;92.60;;;;;;5124885;28;20062;-53
2022/05/27 10:43:37;;;;;;;4.82;1.40;;;25.70;92.60;;;;;;5124520;28;20011;-50
2022/05/27 10:46:09;;;;;;;7.78;1.88;;;25.70;92.70;;;;;;5124938;28;20027;-49
2022/05/27 10:48:51;;;;;;;;;;;25.70;92.70;;;;;;5124483;28;20026;-54
2022/05/27 10:51:18;;;;;;;;;;;25.70;92.70;;;;;;5125159;28;20233;-53
2022/05/27 10:53:51;;;;;;;;;;;25.80;92.80;;;;;;5124621;28;19979;-49
2022/05/27 10:56:26;;;;;;;;;;;25.70;92.90;;;;;;5125348;28;20207;-51
2022/05/27 11:02:23;;;;;;;6.28;1.70;;;25.70;92.90;;;;;;5125158;28;19930;-53
2022/05/27 11:04:49;;;;;;;;;;;25.70;92.90;;;;;;5069130;28;20216;-51
2022/05/27 11:07:38;;;;;;;;;;;25.70;93.00;;;;;;5124563;28;19967;-55
2022/05/27 11:10:18;;;;;;;;;;;25.70;93.00;;;;;;5077798;28;19915;-59
2022/05/27 11:15:56;;;;;;;;;;;25.70;93.10;;;;;;5124873;28;19915;-53
2022/05/27 11:18:33;;;;;;;;;;;25.70;93.00;;;;;;5124889;28;20139;-54
2022/05/27 11:21:25;;;;;;;;;;;25.70;93.00;;;;;;5124848;28;19969;-59
2022/05/27 11:27:16;;;;;;;;;;;25.70;93.10;;;;;;5125575;28;20161;-50
2022/05/27 11:29:51;;;;;;;;;;;25.70;93.10;;;;;;5124599;28;19946;-53
2022/05/27 11:32:35;;;;;;;;;;;25.70;93.20;;;;;;5123416;28;19900;-52
2022/05/27 11:35:07;;;;;;;;;;;25.70;93.20;;;;;;5124920;28;20221;-51
2022/05/27 11:37:33;;;;;;;;;;;25.70;93.30;;;;;;5128078;28;19927;-53
2022/05/27 11:40:04;;;;;;;;;;;25.70;93.30;;;;;;5126902;28;19900;-49
2022/05/27 11:42:47;;;;;;;;;;;25.70;93.30;;;;;;5127420;28;19899;-51
2022/05/27 11:48:37;;;;;;;;;;;25.70;93.40;;;;;;5105350;28;19911;-59
2022/05/27 11:51:07;;;;;;;;;;;25.70;93.40;;;;;;5128782;28;19914;-59
2022/05/27 11:53:55;;;;;;;;;;;25.70;93.40;;;;;;5128131;28;19906;-48
2022/05/27 11:56:34;;;;;;;;;;;25.70;93.40;;;;;;5128520;28;19911;-51
2022/05/27 11:59:01;;;;;;;;;;;25.70;93.50;;;;;;5127923;28;19935;-50
2022/05/27 12:01:41;;;;;;;8.60;2.50;;;25.80;93.50;;;;;;5128220;28;19910;-48
2022/05/27 12:04:33;;;;;;;6.55;2.40;;;25.80;93.50;;;;;;5128178;28;19911;-53
2022/05/27 12:07:18;;;;;;;7.45;1.80;;;25.80;93.60;;;;;;5127314;28;20026;-55
2022/05/27 12:10:09;;;;;;;8.27;1.70;;;25.70;93.50;;;;;;5127400;28;20027;-59
2022/05/27 12:12:49;;;;;;;6.18;1.40;;;25.70;93.50;;;;;;5127658;28;20047;-53
2022/05/27 12:16:09;;;;;;;7.32;1.42;;;25.80;93.80;;;;;;5127416;28;20020;-53
2022/05/27 12:18:51;;;;;;;8.00;1.35;;;25.80;93.60;;;;;;5024917;28;20026;-54
2022/05/27 12:21:24;;;;;;;8.90;1.30;;;25.80;93.60;;;;;;5109149;28;20106;-54
2022/05/27 12:24:00;;;;;;;11.02;1.50;;;25.80;93.50;;;;;;5127706;27;20019;-57
2022/05/27 12:26:44;;;;;;;9.80;2.15;;;25.80;93.50;;;;;;5127379;28;20043;-54
2022/05/27 12:29:13;;;;;;;12.38;2.17;;;25.80;93.60;;;;;;5127229;28;20022;-55
2022/05/27 12:31:41;;;;;;;10.02;2.20;;;25.80;93.90;;;;;;5127754;28;20296;-50
2022/05/27 12:34:29;;;;;;;14.32;1.77;;;25.80;93.70;;;;;;5127800;28;20061;-49
2022/05/27 12:37:00;;;;;;;7.38;1.42;;;25.80;93.70;;;;;;5127317;28;20044;-48
2022/05/27 12:39:30;;;;;;;6.70;1.58;;;25.70;93.70;;;;;;5127585;28;20016;-48
2022/05/27 12:42:24;;;;;;;6.25;1.65;;;25.70;93.70;;;;;;5127421;28;20103;-55
2022/05/27 12:44:52;;;;;;;5.53;1.45;;;25.70;93.70;;;;;;5126714;28;20023;-56
2022/05/27 12:47:20;;;;;;;7.95;1.58;;;25.70;93.80;;;;;;5126419;28;20272;-53
2022/05/27 12:50:06;;;;;;;10.35;1.80;;;25.70;93.80;;;;;;5127267;28;20058;-51
2022/05/27 12:52:33;;;;;;;7.43;1.23;;;25.80;93.80;;;;;;5127805;28;20026;-50
2022/05/27 12:55:06;;;;;;;6.95;1.55;;;25.70;93.70;;;;;;5127203;28;20011;-51
2022/05/27 13:03:40;;;;;;;4.68;1.10;;;25.70;93.60;;;;;;5092733;28;20332;-51
2022/05/27 13:06:19;;;;;;;3.53;0.95;;;25.70;93.70;;;;;;5127004;27;20027;-53
2022/05/27 13:09:07;;;;;;;3.20;0.98;;;25.70;93.60;;;;;;5126766;28;20196;-48
2022/05/27 13:11:34;;;;;;;5.40;1.13;;;25.70;93.60;;;;;;5127040;28;20047;-52
2022/05/27 13:14:03;;;;;;;2.90;1.00;;;25.80;93.70;;;;;;5127219;28;20338;-49
2022/05/27 13:16:58;;;;;;;5.10;0.90;;;25.70;93.70;;;;;;5126392;28;20068;-54
2022/05/27 13:19:33;;;;;;;3.90;0.90;;;25.80;93.70;;;;;;5126431;28;20020;-51
2022/05/27 13:22:05;;;;;;;2.50;1.00;;;25.70;93.70;;;;;;5126989;28;20075;-54
2022/05/27 13:24:38;;;;;;;3.42;0.93;;;25.80;93.80;;;;;;5126885;28;20031;-51
2022/05/27 13:27:32;;;;;;;4.50;1.00;;;25.70;93.80;;;;;;5126968;28;20035;-52
2022/05/27 13:30:06;;;;;;;3.30;1.00;;;25.80;93.80;;;;;;5126583;28;20046;-50
2022/05/27 13:32:59;;;;;;;3.45;0.95;;;25.70;93.80;;;;;;5126375;28;20020;-54
2022/05/27 13:35:28;;;;;;;3.00;0.80;;;25.80;93.90;;;;;;5125785;28;20047;-52
2022/05/27 13:38:08;;;;;;;3.80;1.10;;;25.70;93.90;;;;;;5126746;28;20030;-53
2022/05/27 13:40:36;;;;;;;2.78;0.50;;;25.80;93.90;;;;;;5126346;28;20023;-51
2022/05/27 13:43:35;;;;;;;3.55;0.98;;;25.70;93.90;;;;;;5126927;28;20026;-53
2022/05/27 13:46:02;;;;;;;2.83;0.70;;;25.70;93.90;;;;;;5107528;28;20084;-50
2022/05/27 13:48:35;;;;;;;2.22;0.60;;;25.70;93.90;;;;;;5125668;28;20019;-53
2022/05/27 13:51:17;;;;;;;1.50;0.55;;;25.70;93.90;;;;;;5125994;28;20038;-53
2022/05/27 13:53:45;;;;;;;3.55;0.60;;;25.80;94.00;;;;;;5125415;28;20019;-54
2022/05/27 13:56:17;;;;;;;2.65;0.60;;;25.70;94.00;;;;;;5125698;28;20086;-54
2022/05/27 13:59:26;;;;;;;2.03;0.80;;;25.70;94.00;;;;;;5125694;28;20027;-56
2022/05/27 14:01:56;;;;;;;2.97;0.80;;;25.80;94.10;;;;;;5125236;28;20372;-51
2022/05/27 14:04:47;;;;;;;4.15;0.80;;;25.70;94.00;;;;;;5125348;28;20019;-52
2022/05/27 14:07:42;;;;;;;1.35;0.52;;;25.80;94.00;;;;;;5125279;28;20089;-51
2022/05/27 14:10:25;;;;;;;2.20;0.50;;;25.70;94.00;;;;;;5125935;28;20031;-53
2022/05/27 14:12:53;;;;;;;1.52;0.50;;;25.80;94.10;;;;;;5125557;28;20023;-55
2022/05/27 14:15:26;;;;;;;1.25;0.52;;;25.70;94.00;;;;;;5125542;28;20049;-49